Time;durP1;ratioP1;P1;durP2;ratioP2;P2;SDS_P1;SDS_P2;PMS_P1;PMS_P2;Temp;Humidity;BMP_temperature;BMP_pressure;BME280_temperature;BME280_humidity;BME280_pressure;Samples;Min_cycle;Max_cycle;Signal;HPM_P1;HPM_P2
2021/12/09 00:01:07;;;;;;;20.20;4.90;;;3.40;99.90;;;;;;6251621;22;20386;-94
2021/12/09 00:03:38;;;;;;;10.83;4.60;;;3.40;99.90;;;;;;6249864;22;20385;-93
2021/12/09 00:06:07;;;;;;;15.57;4.90;;;3.40;99.90;;;;;;6275018;22;20685;-93
2021/12/09 00:08:37;;;;;;;13.10;4.13;;;3.40;99.90;;;;;;6250200;22;20863;-93
2021/12/09 00:11:07;;;;;;;13.17;4.00;;;3.40;99.90;;;;;;6250310;22;20771;-93
2021/12/09 00:13:34;;;;;;;17.50;5.13;;;3.40;99.90;;;;;;6275573;22;20665;-92
2021/12/09 00:16:05;;;;;;;10.20;4.10;;;3.30;99.90;;;;;;6274472;22;20379;-93
2021/12/09 00:18:32;;;;;;;26.53;5.67;;;3.40;99.90;;;;;;6275268;22;20373;-93
2021/12/09 00:20:59;;;;;;;15.73;6.97;;;3.30;99.90;;;;;;6274970;22;20719;-93
2021/12/09 00:23:27;;;;;;;8.43;4.63;;;3.40;99.90;;;;;;6273939;22;20392;-93
2021/12/09 00:25:55;;;;;;;21.03;5.73;;;3.40;99.90;;;;;;6276052;22;20445;-93
2021/12/09 00:28:22;;;;;;;6.90;3.43;;;3.30;99.90;;;;;;6276576;22;20754;-93
2021/12/09 00:30:50;;;;;;;12.50;5.10;;;3.30;99.90;;;;;;6249786;22;20396;-93
2021/12/09 00:33:18;;;;;;;16.00;4.93;;;3.30;99.90;;;;;;6249185;22;20440;-93
2021/12/09 00:35:54;;;;;;;8.33;3.77;;;3.30;99.90;;;;;;6275632;22;20392;-93
2021/12/09 00:38:33;;;;;;;17.67;5.67;;;3.30;99.90;;;;;;6251492;22;20987;-93
2021/12/09 00:41:00;;;;;;;18.30;5.03;;;3.30;99.90;;;;;;6274219;22;20451;-93
2021/12/09 00:43:28;;;;;;;12.90;3.83;;;3.30;99.90;;;;;;6273671;22;20393;-93
2021/12/09 00:45:57;;;;;;;15.37;4.80;;;3.30;99.90;;;;;;6250266;22;20393;-93
2021/12/09 00:48:25;;;;;;;7.30;4.27;;;3.20;99.90;;;;;;6251150;22;20393;-93
2021/12/09 00:50:54;;;;;;;15.63;4.53;;;3.20;99.90;;;;;;6276704;22;20396;-92
2021/12/09 00:53:22;;;;;;;13.27;4.03;;;3.30;99.90;;;;;;6276612;22;20420;-93
2021/12/09 00:55:50;;;;;;;12.47;4.13;;;3.20;99.90;;;;;;6276834;22;20381;-93
2021/12/09 00:58:17;;;;;;;13.60;5.53;;;3.20;99.90;;;;;;6276134;22;20388;-93
2021/12/09 01:00:45;;;;;;;18.37;5.47;;;3.20;99.90;;;;;;6276584;22;20411;-93
2021/12/09 01:03:11;;;;;;;17.07;4.50;;;3.30;99.90;;;;;;6249388;22;20412;-93
2021/12/09 01:05:38;;;;;;;9.53;4.17;;;3.20;99.90;;;;;;6302201;22;20828;-93
2021/12/09 01:08:05;;;;;;;12.87;5.80;;;3.20;99.90;;;;;;6275670;22;20160;-93
2021/12/09 01:10:35;;;;;;;11.80;5.40;;;3.20;99.90;;;;;;6275840;22;20388;-93
2021/12/09 01:13:05;;;;;;;13.90;6.60;;;3.20;99.90;;;;;;6275046;22;20420;-93
2021/12/09 01:15:34;;;;;;;7.70;3.83;;;3.20;99.90;;;;;;6250751;22;20386;-93
2021/12/09 01:18:03;;;;;;;29.83;6.30;;;3.20;99.90;;;;;;6250911;22;20392;-93
2021/12/09 01:20:31;;;;;;;17.00;3.97;;;3.20;99.90;;;;;;6251665;22;20389;-93
2021/12/09 01:23:02;;;;;;;10.40;4.33;;;3.20;99.90;;;;;;6252266;22;20446;-93
2021/12/09 01:25:35;;;;;;;21.07;5.10;;;3.20;99.90;;;;;;6278799;22;20430;-93
2021/12/09 01:28:06;;;;;;;14.63;5.73;;;3.20;99.90;;;;;;6278097;22;20388;-93
2021/12/09 01:30:35;;;;;;;12.73;4.97;;;3.20;99.90;;;;;;6279237;22;20592;-93
2021/12/09 01:33:06;;;;;;;16.23;6.70;;;3.20;99.90;;;;;;6254413;22;20436;-93
2021/12/09 01:35:38;;;;;;;7.90;4.47;;;3.10;99.90;;;;;;6254773;22;20480;-93
2021/12/09 01:38:12;;;;;;;11.17;5.30;;;3.10;99.90;;;;;;6278996;22;20387;-92
2021/12/09 01:40:43;;;;;;;17.40;6.70;;;3.10;99.90;;;;;;6278783;22;20828;-93
2021/12/09 01:43:10;;;;;;;17.33;4.93;;;3.10;99.90;;;;;;6279242;22;20423;-93
2021/12/09 01:45:42;;;;;;;20.50;4.87;;;3.10;99.90;;;;;;6254476;22;20442;-93
2021/12/09 01:48:10;;;;;;;11.13;4.43;;;3.10;99.90;;;;;;6278631;22;20393;-93
2021/12/09 01:50:37;;;;;;;16.40;4.40;;;3.10;99.90;;;;;;6279095;22;20388;-93
2021/12/09 01:53:07;;;;;;;14.07;5.40;;;3.10;99.90;;;;;;6278838;22;20743;-93
2021/12/09 01:55:37;;;;;;;19.30;6.70;;;3.10;99.90;;;;;;6277575;22;20685;-93
2021/12/09 01:58:07;;;;;;;24.63;6.13;;;3.10;99.90;;;;;;6278378;22;20385;-93
2021/12/09 02:00:38;;;;;;;18.70;5.97;;;3.10;99.90;;;;;;6277331;22;20385;-93
2021/12/09 02:03:05;;;;;;;17.23;6.00;;;3.00;99.90;;;;;;6278220;22;20767;-93
2021/12/09 02:05:33;;;;;;;13.50;3.83;;;3.00;99.90;;;;;;6278420;22;20420;-92
2021/12/09 02:08:02;;;;;;;6.60;3.53;;;3.10;99.90;;;;;;6278368;22;20703;-92
2021/12/09 02:11:16;;;;;;;7.23;3.43;;;3.10;99.90;;;;;;6279197;22;20442;-93
2021/12/09 02:13:45;;;;;;;6.10;3.17;;;3.00;99.90;;;;;;6275512;22;20424;-93
2021/12/09 02:16:14;;;;;;;9.53;5.50;;;3.00;99.90;;;;;;6276041;22;20752;-93
2021/12/09 02:18:41;;;;;;;11.30;4.77;;;3.00;99.90;;;;;;6276493;22;20381;-92
2021/12/09 02:21:24;;;;;;;7.90;3.80;;;3.00;99.90;;;;;;6278295;22;20831;-93
2021/12/09 02:23:56;;;;;;;12.53;5.27;;;3.00;99.90;;;;;;6275940;22;20404;-93
2021/12/09 02:26:37;;;;;;;19.53;4.27;;;3.00;99.90;;;;;;6277555;22;20813;-93
2021/12/09 02:29:06;;;;;;;13.47;5.10;;;3.00;99.90;;;;;;6251471;22;20399;-93
2021/12/09 02:31:35;;;;;;;20.53;5.47;;;3.00;99.90;;;;;;6277120;22;20416;-93
2021/12/09 02:34:07;;;;;;;12.97;4.00;;;3.00;99.90;;;;;;6276739;22;20527;-93
2021/12/09 02:36:38;;;;;;;17.53;5.53;;;3.00;99.90;;;;;;6276549;22;20434;-93
2021/12/09 02:39:06;;;;;;;17.73;5.63;;;3.00;99.90;;;;;;6276724;22;20385;-93
2021/12/09 02:41:35;;;;;;;9.47;4.00;;;2.90;99.90;;;;;;6276327;22;20381;-93
2021/12/09 02:44:10;;;;;;;17.20;4.90;;;2.90;99.90;;;;;;6276775;22;20385;-93
2021/12/09 02:46:38;;;;;;;7.70;4.40;;;3.00;99.90;;;;;;6277019;22;20388;-93
2021/12/09 02:49:13;;;;;;;15.37;5.00;;;2.90;99.90;;;;;;6276488;22;20381;-92
2021/12/09 02:51:42;;;;;;;12.97;4.90;;;3.00;99.90;;;;;;6275326;22;20395;-93
2021/12/09 02:54:12;;;;;;;15.20;4.80;;;2.90;99.90;;;;;;6276241;22;20451;-92
2021/12/09 02:56:46;;;;;;;13.90;4.00;;;2.90;99.90;;;;;;6276072;22;20385;-93
2021/12/09 02:59:13;;;;;;;18.13;4.87;;;2.90;99.90;;;;;;6276295;22;20463;-93
2021/12/09 03:01:57;;;;;;;10.20;4.90;;;2.90;99.90;;;;;;6275872;22;20536;-93
2021/12/09 03:04:37;;;;;;;17.37;4.93;;;2.90;99.90;;;;;;6277524;22;20764;-92
2021/12/09 03:07:08;;;;;;;14.23;4.50;;;2.80;99.90;;;;;;6278047;22;20859;-93
2021/12/09 03:09:36;;;;;;;22.57;5.27;;;2.90;99.90;;;;;;6304863;22;20453;-93
2021/12/09 03:12:05;;;;;;;11.67;5.00;;;2.80;99.90;;;;;;6277973;22;20881;-92
2021/12/09 03:14:33;;;;;;;16.47;5.07;;;2.80;99.90;;;;;;6278073;22;20425;-93
2021/12/09 03:17:00;;;;;;;8.00;3.50;;;2.80;99.90;;;;;;6251891;22;20435;-93
2021/12/09 03:19:28;;;;;;;19.13;4.87;;;2.80;99.90;;;;;;6277385;22;20381;-93
2021/12/09 03:21:57;;;;;;;8.70;4.50;;;2.80;99.90;;;;;;6226594;22;20392;-92
2021/12/09 03:24:24;;;;;;;12.20;4.93;;;2.80;99.90;;;;;;6275972;22;20664;-93
2021/12/09 03:26:57;;;;;;;10.27;5.60;;;2.80;99.90;;;;;;6250537;22;20391;-93
2021/12/09 03:29:27;;;;;;;12.43;4.20;;;2.80;99.90;;;;;;6275950;22;20378;-92
2021/12/09 03:31:56;;;;;;;8.20;4.20;;;2.80;99.90;;;;;;6275742;22;20385;-93
2021/12/09 03:34:25;;;;;;;17.83;5.30;;;2.80;99.90;;;;;;6275819;22;20435;-93
2021/12/09 03:36:57;;;;;;;14.70;4.87;;;2.80;99.90;;;;;;6274650;22;20403;-93
2021/12/09 03:39:28;;;;;;;11.33;4.30;;;2.80;99.90;;;;;;6275543;22;20381;-93
2021/12/09 03:41:57;;;;;;;7.57;4.27;;;2.80;99.90;;;;;;6275758;22;20400;-93
2021/12/09 03:44:27;;;;;;;8.53;4.90;;;2.70;99.90;;;;;;6275529;22;20395;-93
2021/12/09 03:46:56;;;;;;;12.67;3.90;;;2.80;99.90;;;;;;6250370;22;20393;-93
2021/12/09 03:49:24;;;;;;;9.30;3.63;;;2.70;99.90;;;;;;6276328;22;20731;-93
2021/12/09 03:51:53;;;;;;;15.43;4.10;;;2.70;99.90;;;;;;6275261;22;20788;-93
2021/12/09 03:54:20;;;;;;;11.03;4.50;;;2.70;99.90;;;;;;6250510;22;20425;-93
2021/12/09 03:56:48;;;;;;;15.17;3.97;;;2.70;99.90;;;;;;6276354;22;20373;-93
2021/12/09 03:59:15;;;;;;;6.23;2.90;;;2.70;99.90;;;;;;6275976;22;20892;-92
2021/12/09 04:01:44;;;;;;;9.20;4.20;;;2.70;99.90;;;;;;6250142;22;20396;-93
2021/12/09 04:04:15;;;;;;;22.47;4.90;;;2.70;99.90;;;;;;6275968;22;20809;-93
2021/12/09 04:06:42;;;;;;;16.50;4.23;;;2.70;99.90;;;;;;6275829;22;20584;-93
2021/12/09 04:09:11;;;;;;;17.93;4.80;;;2.70;99.90;;;;;;6275764;22;20963;-92
2021/12/09 04:11:39;;;;;;;15.30;4.90;;;2.60;99.90;;;;;;6275488;22;20160;-93
2021/12/09 04:14:06;;;;;;;12.27;4.50;;;2.70;99.90;;;;;;6276261;22;20483;-92
2021/12/09 04:16:34;;;;;;;10.03;3.53;;;2.60;99.90;;;;;;6276425;22;20391;-93
2021/12/09 04:19:02;;;;;;;10.23;3.70;;;2.60;99.90;;;;;;6276744;22;20381;-93
2021/12/09 04:21:29;;;;;;;9.67;4.23;;;2.60;99.90;;;;;;6274632;22;20743;-93
2021/12/09 04:23:57;;;;;;;5.97;3.43;;;2.60;99.90;;;;;;6250414;22;20415;-93
2021/12/09 04:26:25;;;;;;;17.93;4.40;;;2.70;99.90;;;;;;6274725;22;20381;-93
2021/12/09 04:28:55;;;;;;;11.43;2.80;;;2.60;99.90;;;;;;6250599;22;20454;-93
2021/12/09 04:31:22;;;;;;;19.43;5.30;;;2.60;99.90;;;;;;6276173;22;20965;-93
2021/12/09 04:33:49;;;;;;;9.43;3.70;;;2.60;99.90;;;;;;6275819;22;20539;-93
2021/12/09 04:36:18;;;;;;;13.30;4.20;;;2.60;99.90;;;;;;6276317;22;20456;-93
2021/12/09 04:38:47;;;;;;;11.33;3.60;;;2.60;99.90;;;;;;6250497;22;20389;-93
2021/12/09 04:41:15;;;;;;;21.70;5.50;;;2.60;99.90;;;;;;6277157;22;20875;-92
2021/12/09 04:43:43;;;;;;;8.80;2.80;;;2.60;99.90;;;;;;6250861;22;20393;-93
2021/12/09 04:46:11;;;;;;;22.60;5.60;;;2.60;99.90;;;;;;6275191;22;20443;-92
2021/12/09 04:48:39;;;;;;;6.43;1.93;;;2.60;99.90;;;;;;6275555;22;20377;-93
2021/12/09 04:51:06;;;;;;;12.50;4.50;;;2.60;99.90;;;;;;6275560;22;20387;-93
2021/12/09 04:53:37;;;;;;;12.30;4.30;;;2.60;99.90;;;;;;6275252;22;20460;-93
2021/12/09 04:56:03;;;;;;;10.20;4.17;;;2.60;99.90;;;;;;6274925;22;20510;-93
2021/12/09 04:58:30;;;;;;;18.47;4.80;;;2.60;99.90;;;;;;6275248;22;20835;-93
2021/12/09 05:01:01;;;;;;;14.87;3.83;;;2.60;99.90;;;;;;6248235;22;20381;-93
2021/12/09 05:03:28;;;;;;;12.73;4.50;;;2.60;99.90;;;;;;6247222;22;20388;-93
2021/12/09 05:05:57;;;;;;;10.77;3.53;;;2.60;99.90;;;;;;6273705;22;20389;-93
2021/12/09 05:08:27;;;;;;;12.80;5.00;;;2.60;99.90;;;;;;6248742;22;20605;-92
2021/12/09 05:13:27;;;;;;;10.77;3.20;;;2.60;99.90;;;;;;6301534;22;20495;-93
2021/12/09 05:15:56;;;;;;;13.97;4.10;;;2.60;99.90;;;;;;6274232;22;20374;-93
2021/12/09 05:18:25;;;;;;;7.83;4.00;;;2.60;99.90;;;;;;6273110;22;20393;-93
2021/12/09 05:20:53;;;;;;;13.00;4.40;;;2.50;99.90;;;;;;6248052;22;20385;-93
2021/12/09 05:23:21;;;;;;;14.93;3.90;;;2.60;99.90;;;;;;6272937;22;20415;-93
2021/12/09 05:25:47;;;;;;;13.30;3.90;;;2.50;99.90;;;;;;6272381;22;20392;-92
2021/12/09 05:28:16;;;;;;;9.07;3.17;;;2.50;99.90;;;;;;6248083;22;20393;-93
2021/12/09 05:33:32;;;;;;;10.13;4.47;;;2.50;99.90;;;;;;6299758;22;20432;-93
2021/12/09 05:35:59;;;;;;;17.63;4.70;;;2.50;99.90;;;;;;6272823;22;20377;-93
2021/12/09 05:38:27;;;;;;;19.03;5.57;;;2.50;99.90;;;;;;6249429;22;20389;-93
2021/12/09 05:40:54;;;;;;;9.53;3.80;;;2.50;99.90;;;;;;6274549;22;20944;-94
2021/12/09 05:43:23;;;;;;;16.77;5.10;;;2.50;99.90;;;;;;6275554;22;20405;-93
2021/12/09 05:45:50;;;;;;;14.20;5.20;;;2.50;99.90;;;;;;6274545;22;20385;-93
2021/12/09 05:48:18;;;;;;;13.23;3.90;;;2.50;99.90;;;;;;6274358;22;20385;-93
2021/12/09 05:50:46;;;;;;;16.80;4.00;;;2.50;99.90;;;;;;6224458;22;20417;-93
2021/12/09 05:53:14;;;;;;;29.17;4.83;;;2.50;99.90;;;;;;6249291;22;20432;-93
2021/12/09 05:55:43;;;;;;;9.27;3.47;;;2.50;99.90;;;;;;6273637;22;20427;-93
2021/12/09 05:58:18;;;;;;;7.93;2.03;;;2.50;99.90;;;;;;6274940;22;20460;-93
2021/12/09 06:00:45;;;;;;;8.97;2.83;;;2.50;99.90;;;;;;6273678;22;20376;-93
2021/12/09 06:03:13;;;;;;;4.97;1.53;;;2.50;99.90;;;;;;6273970;22;20443;-93
2021/12/09 06:05:39;;;;;;;9.00;3.00;;;2.50;99.90;;;;;;6273846;22;20388;-93
2021/12/09 06:08:06;;;;;;;15.30;4.30;;;2.50;99.90;;;;;;6249092;22;20393;-93
2021/12/09 06:10:36;;;;;;;17.30;4.37;;;2.40;99.90;;;;;;6248928;22;20179;-93
2021/12/09 06:13:06;;;;;;;22.27;4.33;;;2.40;99.90;;;;;;6273711;22;20389;-93
2021/12/09 06:15:34;;;;;;;5.63;1.90;;;2.40;99.90;;;;;;6249570;22;20500;-93
2021/12/09 06:18:01;;;;;;;10.33;3.67;;;2.50;99.90;;;;;;6275889;22;20380;-93
2021/12/09 06:20:28;;;;;;;11.47;2.90;;;2.40;99.90;;;;;;6274505;22;20377;-93
2021/12/09 06:22:55;;;;;;;4.57;2.80;;;2.40;99.90;;;;;;6276133;22;20748;-93
2021/12/09 06:25:23;;;;;;;12.47;3.10;;;2.40;99.90;;;;;;6276624;22;20706;-93
2021/12/09 06:27:54;;;;;;;15.47;4.20;;;2.40;99.90;;;;;;6275102;22;20790;-93
2021/12/09 06:30:22;;;;;;;21.20;5.00;;;2.40;99.90;;;;;;6274989;22;20831;-93
2021/12/09 06:32:50;;;;;;;15.00;3.60;;;2.40;99.90;;;;;;6275430;22;20435;-94
2021/12/09 06:35:18;;;;;;;12.07;4.80;;;2.40;99.90;;;;;;6275848;22;20377;-93
2021/12/09 06:37:46;;;;;;;6.57;2.63;;;2.40;99.90;;;;;;6275725;22;20380;-93
2021/12/09 06:40:19;;;;;;;19.30;4.03;;;2.40;99.90;;;;;;6251307;22;20412;-92
2021/12/09 06:42:48;;;;;;;5.63;3.83;;;2.40;99.90;;;;;;6275718;22;20396;-93
2021/12/09 06:45:21;;;;;;;8.50;2.73;;;2.40;99.90;;;;;;6275540;22;20965;-93
2021/12/09 06:47:49;;;;;;;11.87;4.27;;;2.30;99.90;;;;;;6275131;22;20381;-93
2021/12/09 06:50:18;;;;;;;4.63;1.93;;;2.40;99.90;;;;;;6274950;22;20385;-93
2021/12/09 06:52:45;;;;;;;16.00;4.80;;;2.40;99.90;;;;;;6273843;22;20377;-93
2021/12/09 06:55:14;;;;;;;17.23;3.40;;;2.30;99.90;;;;;;6248549;22;20393;-93
2021/12/09 06:57:44;;;;;;;24.83;5.63;;;2.40;99.90;;;;;;6248206;22;20528;-93
2021/12/09 07:00:15;;;;;;;12.70;4.03;;;2.40;99.90;;;;;;6273918;22;20716;-93
2021/12/09 07:02:43;;;;;;;10.67;3.40;;;2.30;99.90;;;;;;6276959;22;20373;-93
2021/12/09 07:05:11;;;;;;;16.50;3.60;;;2.30;99.90;;;;;;6249422;22;20389;-93
2021/12/09 07:07:39;;;;;;;11.53;4.00;;;2.30;99.90;;;;;;6249395;22;20393;-93
2021/12/09 07:10:07;;;;;;;17.60;3.70;;;2.30;99.90;;;;;;6247548;22;20439;-93
2021/12/09 07:12:35;;;;;;;12.07;3.93;;;2.30;99.90;;;;;;6272223;22;20913;-93
2021/12/09 07:15:02;;;;;;;8.40;4.90;;;2.30;99.90;;;;;;6273474;22;20421;-93
2021/12/09 07:17:28;;;;;;;14.43;3.83;;;2.30;99.90;;;;;;6272889;22;20385;-93
2021/12/09 07:19:53;;;;;;;19.97;4.60;;;2.30;99.90;;;;;;6275964;22;20381;-93
2021/12/09 07:22:19;;;;;;;14.70;4.43;;;2.30;99.90;;;;;;6247688;22;20188;-93
2021/12/09 07:24:45;;;;;;;7.97;2.70;;;2.30;99.90;;;;;;6247679;22;20164;-93
2021/12/09 07:27:12;;;;;;;9.80;2.97;;;2.30;99.90;;;;;;6248043;22;20171;-93
2021/12/09 07:29:41;;;;;;;8.20;3.80;;;2.30;99.90;;;;;;6248259;22;20389;-93
2021/12/09 07:32:08;;;;;;;9.10;4.07;;;2.30;99.90;;;;;;6247920;22;20480;-93
2021/12/09 07:34:35;;;;;;;13.50;3.80;;;2.30;99.90;;;;;;6272423;22;20929;-92
2021/12/09 07:37:05;;;;;;;9.80;3.27;;;2.30;99.90;;;;;;6273262;22;20373;-93
2021/12/09 07:39:34;;;;;;;10.83;3.83;;;2.30;99.90;;;;;;6248590;22;20723;-93
2021/12/09 07:42:01;;;;;;;9.67;3.40;;;2.30;99.90;;;;;;6273258;22;20953;-93
2021/12/09 07:44:29;;;;;;;16.73;4.07;;;2.30;99.90;;;;;;6273639;22;20863;-93
2021/12/09 07:46:55;;;;;;;12.80;4.93;;;2.30;99.90;;;;;;6272884;22;20385;-93
2021/12/09 07:49:22;;;;;;;10.17;3.77;;;2.30;99.90;;;;;;6247813;22;20407;-93
2021/12/09 07:51:49;;;;;;;16.60;5.03;;;2.30;99.90;;;;;;6274091;22;20818;-93
2021/12/09 07:54:16;;;;;;;9.97;4.03;;;2.30;99.90;;;;;;6273716;22;20420;-93
2021/12/09 07:56:43;;;;;;;9.40;2.63;;;2.30;99.90;;;;;;6273697;22;20377;-93
2021/12/09 07:59:11;;;;;;;8.33;3.97;;;2.30;99.90;;;;;;6248174;22;20730;-93
2021/12/09 08:01:39;;;;;;;8.30;3.30;;;2.30;99.90;;;;;;6272926;22;20472;-93
2021/12/09 08:04:07;;;;;;;18.37;3.63;;;2.30;99.90;;;;;;6248166;22;20863;-93
2021/12/09 08:06:36;;;;;;;12.10;4.27;;;2.30;99.90;;;;;;6247657;22;20390;-93
2021/12/09 08:09:04;;;;;;;9.40;3.73;;;2.30;99.90;;;;;;6272875;22;20411;-93
2021/12/09 08:11:30;;;;;;;14.53;3.47;;;2.30;99.90;;;;;;6272623;22;20385;-93
2021/12/09 08:13:56;;;;;;;18.80;4.07;;;2.30;99.90;;;;;;6272491;22;20545;-93
2021/12/09 08:16:25;;;;;;;10.33;3.13;;;2.30;99.90;;;;;;6272268;22;20175;-93
2021/12/09 08:18:56;;;;;;;12.27;4.47;;;2.30;99.90;;;;;;6247217;22;20396;-93
2021/12/09 08:21:27;;;;;;;8.63;2.53;;;2.40;99.90;;;;;;6248181;22;20535;-93
2021/12/09 08:23:54;;;;;;;22.97;4.17;;;2.40;99.90;;;;;;6273177;22;20373;-93
2021/12/09 08:26:21;;;;;;;18.57;5.07;;;2.40;99.90;;;;;;6272673;22;20377;-93
2021/12/09 08:28:47;;;;;;;15.63;4.67;;;2.30;99.90;;;;;;6300193;22;20369;-93
2021/12/09 08:31:13;;;;;;;22.40;4.60;;;2.30;99.90;;;;;;6272116;22;20393;-92
2021/12/09 08:33:40;;;;;;;11.57;2.90;;;2.40;99.90;;;;;;6271816;22;20764;-93
2021/12/09 08:36:08;;;;;;;15.00;5.23;;;2.40;99.90;;;;;;6272302;22;20210;-93
2021/12/09 08:38:36;;;;;;;19.03;4.40;;;2.40;99.90;;;;;;6247183;22;20945;-93
2021/12/09 08:41:04;;;;;;;12.27;4.33;;;2.40;99.90;;;;;;6246774;22;20392;-93
2021/12/09 08:43:32;;;;;;;13.90;4.37;;;2.40;99.90;;;;;;6247273;22;20439;-93
2021/12/09 08:45:59;;;;;;;19.13;6.60;;;2.50;99.90;;;;;;6271789;22;20381;-93
2021/12/09 08:48:27;;;;;;;21.30;5.47;;;2.50;99.90;;;;;;6246727;22;20634;-93
2021/12/09 08:50:55;;;;;;;10.07;4.33;;;2.50;99.90;;;;;;6272429;22;20393;-93
2021/12/09 08:53:24;;;;;;;20.83;4.53;;;2.50;99.90;;;;;;6270881;22;20512;-93
2021/12/09 08:55:51;;;;;;;7.27;4.07;;;2.50;99.90;;;;;;6271993;22;20444;-93
2021/12/09 08:58:18;;;;;;;11.63;4.80;;;2.50;99.90;;;;;;6271970;22;20381;-92
2021/12/09 09:00:46;;;;;;;14.60;5.13;;;2.50;99.90;;;;;;6246450;22;20460;-93
2021/12/09 09:03:13;;;;;;;20.63;4.57;;;2.50;99.90;;;;;;6299661;22;20383;-93
2021/12/09 09:05:40;;;;;;;17.83;5.97;;;2.50;99.90;;;;;;6272914;22;20388;-93
2021/12/09 09:08:06;;;;;;;20.90;5.67;;;2.50;99.90;;;;;;6299776;22;20431;-93
2021/12/09 09:10:36;;;;;;;10.40;4.40;;;2.60;99.90;;;;;;6246839;22;20457;-93
2021/12/09 09:13:03;;;;;;;31.47;6.90;;;2.60;99.90;;;;;;6272075;22;20160;-93
2021/12/09 09:15:31;;;;;;;24.23;7.10;;;2.60;99.90;;;;;;6272104;22;20381;-93
2021/12/09 09:17:58;;;;;;;17.73;5.60;;;2.60;99.90;;;;;;6272036;22;20404;-92
2021/12/09 09:20:27;;;;;;;18.50;7.50;;;2.60;99.90;;;;;;6272140;22;21058;-92
2021/12/09 09:22:54;;;;;;;22.23;8.33;;;2.60;99.90;;;;;;6272284;22;20413;-93
2021/12/09 09:25:26;;;;;;;14.20;6.00;;;2.60;99.90;;;;;;6272182;22;20460;-93
2021/12/09 09:27:52;;;;;;;29.70;7.70;;;2.70;99.90;;;;;;6271912;22;20646;-93
2021/12/09 09:30:19;;;;;;;17.67;7.00;;;2.70;99.90;;;;;;6247125;22;20407;-93
2021/12/09 09:32:48;;;;;;;18.37;7.13;;;2.70;99.90;;;;;;6245993;22;20179;-93
2021/12/09 09:35:17;;;;;;;16.70;6.77;;;2.70;99.90;;;;;;6271065;22;20429;-92
2021/12/09 09:37:44;;;;;;;15.57;5.73;;;2.70;99.90;;;;;;6272073;22;20400;-93
2021/12/09 09:40:27;;;;;;;29.07;8.00;;;2.70;99.90;;;;;;6271850;22;20410;-92
2021/12/09 09:43:13;;;;;;;28.90;6.63;;;2.70;99.90;;;;;;6271906;22;20438;-92
2021/12/09 09:45:43;;;;;;;19.13;5.67;;;2.70;99.90;;;;;;6271472;22;20431;-92
2021/12/09 09:48:17;;;;;;;21.37;7.57;;;2.80;99.90;;;;;;6249919;22;20462;-92
2021/12/09 09:50:46;;;;;;;23.33;7.57;;;2.80;99.90;;;;;;6273965;22;20432;-92
2021/12/09 09:53:18;;;;;;;11.87;5.00;;;2.80;99.90;;;;;;6274023;22;20431;-93
2021/12/09 09:55:47;;;;;;;30.10;9.00;;;2.80;99.90;;;;;;6274525;22;20736;-93
2021/12/09 09:58:15;;;;;;;15.33;6.87;;;2.80;99.90;;;;;;6273598;22;20423;-93
2021/12/09 10:00:44;;;;;;;15.87;5.27;;;2.90;99.90;;;;;;6273526;22;20388;-93
2021/12/09 10:03:17;;;;;;;23.93;7.80;;;2.90;99.90;;;;;;6273574;22;20392;-92
2021/12/09 10:05:46;;;;;;;35.73;10.50;;;2.90;99.90;;;;;;6273874;22;20652;-93
2021/12/09 10:08:13;;;;;;;25.57;9.57;;;2.90;99.90;;;;;;6273576;22;20471;-93
2021/12/09 10:10:42;;;;;;;20.27;6.97;;;2.90;99.90;;;;;;6273859;22;20373;-93
2021/12/09 10:13:13;;;;;;;18.07;6.93;;;2.90;99.90;;;;;;6273954;22;20377;-92
2021/12/09 10:15:49;;;;;;;25.73;8.33;;;3.00;99.90;;;;;;6273424;22;20446;-93
2021/12/09 10:18:35;;;;;;;15.23;7.90;;;3.00;99.90;;;;;;6273885;22;20388;-93
2021/12/09 10:21:24;;;;;;;10.70;5.47;;;3.00;99.90;;;;;;6273636;22;20712;-93
2021/12/09 10:24:18;;;;;;;19.53;8.00;;;3.00;99.90;;;;;;6273837;22;20389;-93
2021/12/09 10:26:46;;;;;;;23.53;7.87;;;3.00;99.90;;;;;;6268014;22;20918;-93
2021/12/09 10:29:29;;;;;;;19.20;8.40;;;3.00;99.90;;;;;;6274836;22;20385;-93
2021/12/09 10:32:00;;;;;;;16.67;6.47;;;3.00;99.90;;;;;;6274966;22;20387;-93
2021/12/09 10:34:45;;;;;;;17.27;6.87;;;3.10;99.90;;;;;;6274740;22;20470;-93
2021/12/09 10:37:20;;;;;;;15.20;6.60;;;3.10;99.90;;;;;;6276312;22;20536;-92
2021/12/09 10:39:57;;;;;;;19.10;8.40;;;3.10;99.90;;;;;;6275602;22;20408;-92
2021/12/09 10:42:30;;;;;;;16.73;6.90;;;3.20;99.90;;;;;;6274878;22;20521;-93
2021/12/09 10:45:05;;;;;;;25.87;9.80;;;3.20;99.90;;;;;;6250441;22;20389;-93
2021/12/09 10:47:50;;;;;;;30.50;10.40;;;3.20;99.90;;;;;;6274674;22;20461;-93
2021/12/09 10:50:39;;;;;;;19.70;9.20;;;3.20;99.90;;;;;;6275233;22;20384;-93
2021/12/09 10:55:58;;;;;;;24.10;8.70;;;3.30;99.90;;;;;;6312993;22;20358;-93
2021/12/09 10:58:31;;;;;;;24.67;8.93;;;3.30;99.90;;;;;;6275463;22;20467;-93
2021/12/09 11:01:05;;;;;;;19.60;7.83;;;3.30;99.90;;;;;;6274710;22;20381;-93
2021/12/09 11:03:37;;;;;;;25.13;9.83;;;3.30;99.90;;;;;;6301728;22;20456;-92
2021/12/09 11:06:11;;;;;;;28.50;9.30;;;3.30;99.90;;;;;;6274837;22;20937;-93
2021/12/09 11:08:44;;;;;;;30.03;9.80;;;3.40;99.90;;;;;;6274637;22;20419;-93
2021/12/09 11:11:12;;;;;;;27.47;9.70;;;3.40;99.90;;;;;;6274955;22;20381;-93
2021/12/09 11:13:48;;;;;;;24.30;9.17;;;3.40;99.90;;;;;;6274900;22;20420;-92
2021/12/09 11:16:25;;;;;;;22.23;10.00;;;3.40;99.90;;;;;;6275175;22;20376;-93
2021/12/09 11:19:12;;;;;;;28.80;9.43;;;3.40;99.90;;;;;;6274840;22;20723;-92
2021/12/09 11:21:44;;;;;;;19.67;8.70;;;3.50;99.90;;;;;;6250213;22;20725;-93
2021/12/09 11:24:14;;;;;;;13.90;7.90;;;3.50;99.90;;;;;;6274960;22;20416;-93
2021/12/09 11:26:59;;;;;;;26.77;6.93;;;3.50;99.90;;;;;;6273960;22;20400;-93
2021/12/09 11:29:49;;;;;;;25.17;9.53;;;3.60;99.90;;;;;;6274198;22;20373;-93
2021/12/09 11:32:37;;;;;;;20.10;9.43;;;3.60;99.90;;;;;;6273885;22;20830;-93
2021/12/09 11:35:30;;;;;;;32.43;11.07;;;3.60;99.90;;;;;;6273923;22;20883;-93
2021/12/09 11:38:20;;;;;;;24.13;9.40;;;3.60;99.90;;;;;;6273589;22;20385;-93
2021/12/09 11:40:51;;;;;;;19.87;10.20;;;3.70;99.90;;;;;;6274137;22;20385;-93
2021/12/09 11:43:24;;;;;;;33.70;8.77;;;3.70;99.90;;;;;;6225257;22;20482;-93
2021/12/09 11:45:53;;;;;;;23.03;8.47;;;3.70;99.90;;;;;;6274374;22;20392;-93
2021/12/09 11:48:21;;;;;;;28.70;11.67;;;3.80;99.90;;;;;;6274546;22;20377;-92
2021/12/09 11:50:50;;;;;;;23.40;10.90;;;3.70;99.90;;;;;;6273666;22;20389;-93
2021/12/09 11:53:23;;;;;;;29.93;10.00;;;3.80;99.90;;;;;;6274633;22;20456;-92
2021/12/09 11:56:03;;;;;;;34.43;12.23;;;3.80;99.90;;;;;;6248828;22;20918;-93
2021/12/09 11:58:38;;;;;;;26.90;11.00;;;3.80;99.90;;;;;;6250600;22;20702;-92
2021/12/09 12:07:17;;;;;;;21.07;11.67;;;3.90;99.90;;;;;;6300433;22;20356;-93
2021/12/09 12:21:18;;;;;;;30.73;10.97;;;3.90;99.90;;;;;;6301341;22;20385;-93
2021/12/09 12:29:56;;;;;;;31.00;10.90;;;4.00;99.90;;;;;;6310341;22;20349;-93
2021/12/09 12:40:50;;;;;;;30.80;13.73;;;4.10;99.90;;;;;;6300427;22;20357;-93
2021/12/09 12:43:30;;;;;;;23.33;10.60;;;4.00;99.90;;;;;;6273033;22;20458;-92
2021/12/09 12:46:08;;;;;;;20.83;9.07;;;4.10;99.90;;;;;;6272678;22;20377;-94
2021/12/09 12:49:11;;;;;;;22.67;11.73;;;4.10;99.90;;;;;;6272922;22;20385;-93
2021/12/09 12:51:50;;;;;;;39.43;13.40;;;4.10;99.90;;;;;;6272158;22;20392;-93
2021/12/09 12:54:30;;;;;;;30.00;12.80;;;4.20;99.90;;;;;;6273068;22;20921;-93
2021/12/09 13:00:47;;;;;;;29.13;10.40;;;4.20;99.90;;;;;;6300565;22;20349;-93
2021/12/09 13:03:35;;;;;;;28.40;12.83;;;4.20;99.90;;;;;;6234446;23;20852;-93
2021/12/09 13:07:00;;;;;;;38.37;14.80;;;4.20;99.90;;;;;;6209507;23;20398;-93
2021/12/09 13:24:04;;;;;;;32.87;14.60;;;4.30;99.90;;;;;;6173704;23;20439;-93
2021/12/09 13:37:26;;;;;;;22.83;11.50;;;4.40;99.90;;;;;;6236042;23;20848;-93
2021/12/09 13:54:05;;;;;;;32.57;12.70;;;4.40;99.90;;;;;;6151012;23;20455;-93
2021/12/09 13:55:25;;;;;;;28.93;12.57;;;4.50;99.90;;;;;;6147572;23;20436;-94
2021/12/09 13:58:21;;;;;;;26.97;11.57;;;4.50;99.90;;;;;;6154072;23;20385;-93
2021/12/09 14:01:01;;;;;;;33.20;15.70;;;4.50;99.90;;;;;;6037523;23;20399;-93
2021/12/09 14:04:11;;;;;;;36.70;13.60;;;4.50;99.90;;;;;;6085697;23;20388;-94
2021/12/09 14:10:32;;;;;;;29.77;13.53;;;4.50;99.90;;;;;;5999809;23;20382;-93
2021/12/09 14:13:25;;;;;;;;;;;;;;;;;;;;;
2021/12/09 14:16:39;;;;;;;32.73;14.87;;;4.50;99.90;;;;;;6170855;23;20484;-94
2021/12/09 14:22:29;;;;;;;32.37;14.73;;;4.50;99.90;;;;;;6183105;23;20456;-93
2021/12/09 14:25:28;;;;;;;32.93;14.43;;;4.50;99.90;;;;;;6176165;23;20863;-93
2021/12/09 14:28:28;;;;;;;27.07;13.27;;;4.50;99.90;;;;;;6063890;23;20388;-93
2021/12/09 14:30:58;;;;;;;33.40;15.80;;;4.50;99.90;;;;;;6088028;23;20445;-93
2021/12/09 14:33:29;;;;;;;28.03;15.17;;;4.50;99.90;;;;;;6089610;23;20465;-93
2021/12/09 14:36:06;;;;;;;26.80;14.20;;;4.60;99.90;;;;;;6067285;23;20387;-93
2021/12/09 14:38:34;;;;;;;31.17;13.40;;;4.50;99.90;;;;;;6126866;23;20826;-93